KEPH/EPH METAR and TAF weather

Enter ICAO airport designator
Station Type Date Time Source
KEPH METAR 2021/09/25 03:53 UTC NOAA

KEPH 250353Z AUTO 31007KT 10SM CLR 21/02 A2994 RMK AO2 SLP132 T02110022


Station Type Date Time Source
KEPH Decoded METAR 2021/09/25 03:53 UTC NOAA

EPHRATA MUNICIPAL AIRPORT, WA, United States (KEPH) 47-18N 119-31W 383M
Sep 24, 2021 - 11:53 PM EDT / 2021.09.25 0353 UTC
Wind: from the NW (310 degrees) at 8 MPH (7 KT):0
Visibility: 10 mile(s):0
Sky conditions: clear
Temperature: 70.0 F (21.1 C)
Dew Point: 36.0 F (2.2 C)
Relative Humidity: 28%
Pressure (altimeter): 29.94 in. Hg (1013 hPa)
ob: KEPH 250353Z AUTO 31007KT 10SM CLR 21/02 A2994 RMK AO2 SLP132 T02110022
cycle: 4

Station Type Date Time Source
KEPH TAF UTC NOAA

Error!

Example: see airport list